sensor_id;sensor_type;location;lat;lon;timestamp;temperature;humidity
5086;DHT22;4715;51.660;7.082;2024-03-29T00:00:17;9.60;99.90
5086;DHT22;4715;51.660;7.082;2024-03-29T00:02:38;9.60;99.90
5086;DHT22;4715;51.660;7.082;2024-03-29T00:04:59;9.50;99.90
5086;DHT22;4715;51.660;7.082;2024-03-29T00:07:20;9.60;99.90
5086;DHT22;4715;51.660;7.082;2024-03-29T00:09:41;9.60;99.90
5086;DHT22;4715;51.660;7.082;2024-03-29T00:12:04;9.60;99.90
5086;DHT22;4715;51.660;7.082;2024-03-29T00:14:25;9.60;99.90
5086;DHT22;4715;51.660;7.082;2024-03-29T00:16:47;9.60;99.90
5086;DHT22;4715;51.660;7.082;2024-03-29T00:19:08;9.60;99.90
5086;DHT22;4715;51.660;7.082;2024-03-29T00:21:29;9.60;99.90
5086;DHT22;4715;51.660;7.082;2024-03-29T00:23:49;9.60;99.90
5086;DHT22;4715;51.660;7.082;2024-03-29T00:26:10;9.70;99.90
5086;DHT22;4715;51.660;7.082;2024-03-29T00:28:33;9.60;99.90
5086;DHT22;4715;51.660;7.082;2024-03-29T00:30:54;9.60;99.90
5086;DHT22;4715;51.660;7.082;2024-03-29T00:33:15;9.60;99.90
5086;DHT22;4715;51.660;7.082;2024-03-29T00:35:36;9.60;99.90
5086;DHT22;4715;51.660;7.082;2024-03-29T00:37:57;9.60;99.90
5086;DHT22;4715;51.660;7.082;2024-03-29T00:40:18;9.60;99.90
5086;DHT22;4715;51.660;7.082;2024-03-29T00:42:39;9.60;99.90
5086;DHT22;4715;51.660;7.082;2024-03-29T00:45:01;9.60;99.90
5086;DHT22;4715;51.660;7.082;2024-03-29T00:47:22;9.50;99.90
5086;DHT22;4715;51.660;7.082;2024-03-29T00:49:43;9.60;99.90
5086;DHT22;4715;51.660;7.082;2024-03-29T00:52:04;9.60;99.90
5086;DHT22;4715;51.660;7.082;2024-03-29T00:54:25;9.60;99.90
5086;DHT22;4715;51.660;7.082;2024-03-29T00:56:46;9.60;99.90
5086;DHT22;4715;51.660;7.082;2024-03-29T00:59:07;9.60;99.90
5086;DHT22;4715;51.660;7.082;2024-03-29T01:01:29;9.60;99.90
5086;DHT22;4715;51.660;7.082;2024-03-29T01:03:50;9.60;99.90
5086;DHT22;4715;51.660;7.082;2024-03-29T01:06:11;9.60;99.90
5086;DHT22;4715;51.660;7.082;2024-03-29T01:08:32;9.60;99.90
5086;DHT22;4715;51.660;7.082;2024-03-29T01:10:53;9.60;99.90
5086;DHT22;4715;51.660;7.082;2024-03-29T01:13:14;9.60;99.90
5086;DHT22;4715;51.660;7.082;2024-03-29T01:15:35;9.70;99.90
5086;DHT22;4715;51.660;7.082;2024-03-29T01:17:57;9.70;99.90
5086;DHT22;4715;51.660;7.082;2024-03-29T01:20:18;9.60;99.90
5086;DHT22;4715;51.660;7.082;2024-03-29T01:22:39;9.70;99.90
5086;DHT22;4715;51.660;7.082;2024-03-29T01:25:00;9.70;99.90
5086;DHT22;4715;51.660;7.082;2024-03-29T01:27:22;9.80;99.90
5086;DHT22;4715;51.660;7.082;2024-03-29T01:29:43;9.70;99.90
5086;DHT22;4715;51.660;7.082;2024-03-29T01:32:05;9.70;99.90
5086;DHT22;4715;51.660;7.082;2024-03-29T01:34:27;9.70;99.90
5086;DHT22;4715;51.660;7.082;2024-03-29T01:36:48;9.80;99.90
5086;DHT22;4715;51.660;7.082;2024-03-29T01:39:10;9.80;99.90
5086;DHT22;4715;51.660;7.082;2024-03-29T01:41:31;9.80;99.90
5086;DHT22;4715;51.660;7.082;2024-03-29T01:43:52;9.80;99.90
5086;DHT22;4715;51.660;7.082;2024-03-29T01:46:14;9.80;99.90
5086;DHT22;4715;51.660;7.082;2024-03-29T01:48:37;9.80;99.90
5086;DHT22;4715;51.660;7.082;2024-03-29T01:51:01;9.80;99.90
5086;DHT22;4715;51.660;7.082;2024-03-29T01:53:23;9.80;99.90
5086;DHT22;4715;51.660;7.082;2024-03-29T01:55:46;9.80;99.90
5086;DHT22;4715;51.660;7.082;2024-03-29T01:58:11;9.80;99.90
5086;DHT22;4715;51.660;7.082;2024-03-29T02:00:36;9.80;99.90
5086;DHT22;4715;51.660;7.082;2024-03-29T02:03:01;9.80;99.90
5086;DHT22;4715;51.660;7.082;2024-03-29T02:05:25;9.80;99.90
5086;DHT22;4715;51.660;7.082;2024-03-29T02:07:48;9.80;99.90
5086;DHT22;4715;51.660;7.082;2024-03-29T02:10:10;9.80;99.90
5086;DHT22;4715;51.660;7.082;2024-03-29T02:12:33;9.80;99.90
5086;DHT22;4715;51.660;7.082;2024-03-29T02:14:55;9.80;99.90
5086;DHT22;4715;51.660;7.082;2024-03-29T02:17:18;9.80;99.90
5086;DHT22;4715;51.660;7.082;2024-03-29T02:19:41;9.80;99.90
5086;DHT22;4715;51.660;7.082;2024-03-29T02:22:08;9.90;99.90
5086;DHT22;4715;51.660;7.082;2024-03-29T02:24:41;9.90;99.90
5086;DHT22;4715;51.660;7.082;2024-03-29T02:27:04;9.90;99.90
5086;DHT22;4715;51.660;7.082;2024-03-29T02:29:26;9.90;99.90
5086;DHT22;4715;51.660;7.082;2024-03-29T02:31:50;10.00;99.90
5086;DHT22;4715;51.660;7.082;2024-03-29T02:34:16;10.00;99.90
5086;DHT22;4715;51.660;7.082;2024-03-29T02:36:39;10.10;99.90
5086;DHT22;4715;51.660;7.082;2024-03-29T02:39:05;10.10;99.90
5086;DHT22;4715;51.660;7.082;2024-03-29T02:41:31;10.10;99.90
5086;DHT22;4715;51.660;7.082;2024-03-29T02:43:55;10.10;99.90
5086;DHT22;4715;51.660;7.082;2024-03-29T02:46:18;10.20;99.90
5086;DHT22;4715;51.660;7.082;2024-03-29T02:48:40;10.10;99.90
5086;DHT22;4715;51.660;7.082;2024-03-29T02:51:04;10.20;99.90
5086;DHT22;4715;51.660;7.082;2024-03-29T02:53:25;10.20;99.90
5086;DHT22;4715;51.660;7.082;2024-03-29T02:55:48;10.20;99.90
5086;DHT22;4715;51.660;7.082;2024-03-29T02:58:12;10.10;99.90
5086;DHT22;4715;51.660;7.082;2024-03-29T03:00:34;10.20;99.90
5086;DHT22;4715;51.660;7.082;2024-03-29T03:02:54;10.20;99.90
5086;DHT22;4715;51.660;7.082;2024-03-29T03:05:20;10.20;99.90
5086;DHT22;4715;51.660;7.082;2024-03-29T03:07:41;10.20;99.90
5086;DHT22;4715;51.660;7.082;2024-03-29T03:10:20;10.20;99.90
5086;DHT22;4715;51.660;7.082;2024-03-29T03:13:00;10.20;99.90
5086;DHT22;4715;51.660;7.082;2024-03-29T03:15:23;10.20;99.90
5086;DHT22;4715;51.660;7.082;2024-03-29T03:17:45;10.20;99.90
5086;DHT22;4715;51.660;7.082;2024-03-29T03:20:08;10.20;99.90
5086;DHT22;4715;51.660;7.082;2024-03-29T03:22:30;10.20;99.90
5086;DHT22;4715;51.660;7.082;2024-03-29T03:24:51;10.20;99.90
5086;DHT22;4715;51.660;7.082;2024-03-29T03:27:14;10.20;99.90
5086;DHT22;4715;51.660;7.082;2024-03-29T03:29:35;10.30;99.90
5086;DHT22;4715;51.660;7.082;2024-03-29T03:32:00;10.30;99.90
5086;DHT22;4715;51.660;7.082;2024-03-29T03:34:20;10.30;99.90
5086;DHT22;4715;51.660;7.082;2024-03-29T03:36:42;10.40;99.90
5086;DHT22;4715;51.660;7.082;2024-03-29T03:39:03;10.40;99.90
5086;DHT22;4715;51.660;7.082;2024-03-29T03:41:25;10.40;99.90
5086;DHT22;4715;51.660;7.082;2024-03-29T03:43:46;10.40;99.90
5086;DHT22;4715;51.660;7.082;2024-03-29T03:46:07;10.40;99.90
5086;DHT22;4715;51.660;7.082;2024-03-29T03:48:30;10.40;99.90
5086;DHT22;4715;51.660;7.082;2024-03-29T03:50:52;10.40;99.90
5086;DHT22;4715;51.660;7.082;2024-03-29T03:53:13;10.40;99.90
5086;DHT22;4715;51.660;7.082;2024-03-29T03:55:36;10.50;99.90
5086;DHT22;4715;51.660;7.082;2024-03-29T03:57:57;10.50;99.90
5086;DHT22;4715;51.660;7.082;2024-03-29T04:00:20;10.50;99.90
5086;DHT22;4715;51.660;7.082;2024-03-29T04:02:41;10.40;99.90
5086;DHT22;4715;51.660;7.082;2024-03-29T04:05:07;10.40;99.90
5086;DHT22;4715;51.660;7.082;2024-03-29T04:07:28;10.40;99.90
5086;DHT22;4715;51.660;7.082;2024-03-29T04:09:52;10.40;99.90
5086;DHT22;4715;51.660;7.082;2024-03-29T04:12:13;10.40;99.90
5086;DHT22;4715;51.660;7.082;2024-03-29T04:14:35;10.40;99.90
5086;DHT22;4715;51.660;7.082;2024-03-29T04:16:56;10.40;99.90
5086;DHT22;4715;51.660;7.082;2024-03-29T04:19:19;10.40;99.90
5086;DHT22;4715;51.660;7.082;2024-03-29T04:21:41;10.30;99.90
5086;DHT22;4715;51.660;7.082;2024-03-29T04:24:03;10.30;99.90
5086;DHT22;4715;51.660;7.082;2024-03-29T04:26:28;10.20;99.90
5086;DHT22;4715;51.660;7.082;2024-03-29T04:28:50;10.20;99.90
5086;DHT22;4715;51.660;7.082;2024-03-29T04:31:11;10.10;99.90
5086;DHT22;4715;51.660;7.082;2024-03-29T04:33:34;10.10;99.90
5086;DHT22;4715;51.660;7.082;2024-03-29T04:35:58;10.00;99.90
5086;DHT22;4715;51.660;7.082;2024-03-29T04:38:22;10.00;99.90
5086;DHT22;4715;51.660;7.082;2024-03-29T04:40:44;9.90;99.90
5086;DHT22;4715;51.660;7.082;2024-03-29T04:43:05;9.80;99.90
5086;DHT22;4715;51.660;7.082;2024-03-29T04:45:27;9.80;99.90
5086;DHT22;4715;51.660;7.082;2024-03-29T04:47:51;9.70;99.90
5086;DHT22;4715;51.660;7.082;2024-03-29T04:50:14;9.70;99.90
5086;DHT22;4715;51.660;7.082;2024-03-29T04:52:36;9.60;99.90
5086;DHT22;4715;51.660;7.082;2024-03-29T04:54:59;9.50;99.90
5086;DHT22;4715;51.660;7.082;2024-03-29T04:57:21;9.50;99.90
5086;DHT22;4715;51.660;7.082;2024-03-29T04:59:43;9.40;99.90
5086;DHT22;4715;51.660;7.082;2024-03-29T05:02:05;9.40;99.90
5086;DHT22;4715;51.660;7.082;2024-03-29T05:04:27;9.40;99.90
5086;DHT22;4715;51.660;7.082;2024-03-29T05:06:48;9.40;99.90
5086;DHT22;4715;51.660;7.082;2024-03-29T05:09:10;9.30;99.90
5086;DHT22;4715;51.660;7.082;2024-03-29T05:11:34;9.30;99.90
5086;DHT22;4715;51.660;7.082;2024-03-29T05:13:56;9.30;99.90
5086;DHT22;4715;51.660;7.082;2024-03-29T05:16:21;9.30;99.90
5086;DHT22;4715;51.660;7.082;2024-03-29T05:18:43;9.20;99.90
5086;DHT22;4715;51.660;7.082;2024-03-29T05:21:05;9.20;99.90
5086;DHT22;4715;51.660;7.082;2024-03-29T05:23:27;9.20;99.90
5086;DHT22;4715;51.660;7.082;2024-03-29T05:25:49;9.20;99.90
5086;DHT22;4715;51.660;7.082;2024-03-29T05:28:13;9.20;99.90
5086;DHT22;4715;51.660;7.082;2024-03-29T05:30:35;9.20;99.90
5086;DHT22;4715;51.660;7.082;2024-03-29T05:32:57;9.20;99.90
5086;DHT22;4715;51.660;7.082;2024-03-29T05:35:18;9.10;99.90
5086;DHT22;4715;51.660;7.082;2024-03-29T05:37:40;9.10;99.90
5086;DHT22;4715;51.660;7.082;2024-03-29T05:40:03;9.20;99.90
5086;DHT22;4715;51.660;7.082;2024-03-29T05:42:27;9.10;99.90
5086;DHT22;4715;51.660;7.082;2024-03-29T05:44:50;9.10;99.90
5086;DHT22;4715;51.660;7.082;2024-03-29T05:47:12;9.10;99.90
5086;DHT22;4715;51.660;7.082;2024-03-29T05:49:34;9.10;99.90
5086;DHT22;4715;51.660;7.082;2024-03-29T05:51:55;9.10;99.90
5086;DHT22;4715;51.660;7.082;2024-03-29T05:54:17;9.10;99.90
5086;DHT22;4715;51.660;7.082;2024-03-29T05:56:39;9.10;99.90
5086;DHT22;4715;51.660;7.082;2024-03-29T05:59:01;9.00;99.90
5086;DHT22;4715;51.660;7.082;2024-03-29T06:01:25;9.00;99.90
5086;DHT22;4715;51.660;7.082;2024-03-29T06:03:49;9.00;99.90
5086;DHT22;4715;51.660;7.082;2024-03-29T06:06:13;8.90;99.90
5086;DHT22;4715;51.660;7.082;2024-03-29T06:08:39;8.90;99.90
5086;DHT22;4715;51.660;7.082;2024-03-29T06:11:03;8.90;99.90
5086;DHT22;4715;51.660;7.082;2024-03-29T06:13:27;8.80;99.90
5086;DHT22;4715;51.660;7.082;2024-03-29T06:16:06;8.80;99.90
5086;DHT22;4715;51.660;7.082;2024-03-29T06:18:48;8.80;99.90
5086;DHT22;4715;51.660;7.082;2024-03-29T06:21:11;8.80;99.90
5086;DHT22;4715;51.660;7.082;2024-03-29T06:23:33;8.70;99.90
5086;DHT22;4715;51.660;7.082;2024-03-29T06:25:56;8.70;99.90
5086;DHT22;4715;51.660;7.082;2024-03-29T06:28:17;8.70;99.90
5086;DHT22;4715;51.660;7.082;2024-03-29T06:30:41;8.70;99.90
5086;DHT22;4715;51.660;7.082;2024-03-29T06:33:05;8.70;99.90
5086;DHT22;4715;51.660;7.082;2024-03-29T06:35:32;8.70;99.90
5086;DHT22;4715;51.660;7.082;2024-03-29T06:37:54;8.70;99.90
5086;DHT22;4715;51.660;7.082;2024-03-29T06:40:16;8.70;99.90
5086;DHT22;4715;51.660;7.082;2024-03-29T06:42:38;8.70;99.90
5086;DHT22;4715;51.660;7.082;2024-03-29T06:45:00;8.70;99.90
5086;DHT22;4715;51.660;7.082;2024-03-29T06:47:23;8.70;99.90
5086;DHT22;4715;51.660;7.082;2024-03-29T06:49:45;8.80;99.90
5086;DHT22;4715;51.660;7.082;2024-03-29T06:52:10;8.80;99.90
5086;DHT22;4715;51.660;7.082;2024-03-29T06:54:32;8.80;99.90
5086;DHT22;4715;51.660;7.082;2024-03-29T06:56:56;8.80;99.90
5086;DHT22;4715;51.660;7.082;2024-03-29T06:59:18;8.80;99.90
5086;DHT22;4715;51.660;7.082;2024-03-29T07:01:40;8.90;99.90
5086;DHT22;4715;51.660;7.082;2024-03-29T07:04:02;8.90;99.90
5086;DHT22;4715;51.660;7.082;2024-03-29T07:06:25;8.90;99.90
5086;DHT22;4715;51.660;7.082;2024-03-29T07:08:48;8.90;99.90
5086;DHT22;4715;51.660;7.082;2024-03-29T07:11:10;8.90;99.90
5086;DHT22;4715;51.660;7.082;2024-03-29T07:13:34;8.90;99.90
5086;DHT22;4715;51.660;7.082;2024-03-29T07:15:56;8.90;99.90
5086;DHT22;4715;51.660;7.082;2024-03-29T07:18:17;9.00;99.90
5086;DHT22;4715;51.660;7.082;2024-03-29T07:20:41;9.00;99.90
5086;DHT22;4715;51.660;7.082;2024-03-29T07:23:03;9.00;99.90
5086;DHT22;4715;51.660;7.082;2024-03-29T07:25:27;9.00;99.90
5086;DHT22;4715;51.660;7.082;2024-03-29T07:27:49;9.00;99.90
5086;DHT22;4715;51.660;7.082;2024-03-29T07:30:12;9.10;99.90
5086;DHT22;4715;51.660;7.082;2024-03-29T07:32:39;9.00;99.90
5086;DHT22;4715;51.660;7.082;2024-03-29T07:35:01;9.00;99.90
5086;DHT22;4715;51.660;7.082;2024-03-29T07:37:26;9.00;99.90
5086;DHT22;4715;51.660;7.082;2024-03-29T07:39:48;9.00;99.90
5086;DHT22;4715;51.660;7.082;2024-03-29T07:42:12;9.10;99.90
5086;DHT22;4715;51.660;7.082;2024-03-29T07:44:34;9.10;99.90
5086;DHT22;4715;51.660;7.082;2024-03-29T07:46:56;9.10;99.90
5086;DHT22;4715;51.660;7.082;2024-03-29T07:49:18;9.10;99.90
5086;DHT22;4715;51.660;7.082;2024-03-29T07:51:41;9.20;99.90
5086;DHT22;4715;51.660;7.082;2024-03-29T07:54:04;9.20;99.90
5086;DHT22;4715;51.660;7.082;2024-03-29T07:56:26;9.20;99.90
5086;DHT22;4715;51.660;7.082;2024-03-29T07:58:52;9.20;99.90
5086;DHT22;4715;51.660;7.082;2024-03-29T08:01:18;9.30;99.90
5086;DHT22;4715;51.660;7.082;2024-03-29T08:03:40;9.30;99.90
5086;DHT22;4715;51.660;7.082;2024-03-29T08:06:05;9.30;99.90
5086;DHT22;4715;51.660;7.082;2024-03-29T08:08:27;9.40;99.90
5086;DHT22;4715;51.660;7.082;2024-03-29T08:10:50;9.40;99.90
5086;DHT22;4715;51.660;7.082;2024-03-29T08:13:15;9.50;99.90
5086;DHT22;4715;51.660;7.082;2024-03-29T08:15:42;9.50;99.90
5086;DHT22;4715;51.660;7.082;2024-03-29T08:18:05;9.50;99.90
5086;DHT22;4715;51.660;7.082;2024-03-29T08:20:27;9.60;99.90
5086;DHT22;4715;51.660;7.082;2024-03-29T08:22:50;9.60;99.90
5086;DHT22;4715;51.660;7.082;2024-03-29T08:25:14;9.60;99.90
5086;DHT22;4715;51.660;7.082;2024-03-29T08:27:36;9.70;99.90
5086;DHT22;4715;51.660;7.082;2024-03-29T08:29:59;9.70;99.90
5086;DHT22;4715;51.660;7.082;2024-03-29T08:32:23;9.80;99.90
5086;DHT22;4715;51.660;7.082;2024-03-29T08:34:47;9.80;99.90
5086;DHT22;4715;51.660;7.082;2024-03-29T08:37:09;9.90;99.90
5086;DHT22;4715;51.660;7.082;2024-03-29T08:39:32;9.90;99.90
5086;DHT22;4715;51.660;7.082;2024-03-29T08:41:55;10.00;99.90
5086;DHT22;4715;51.660;7.082;2024-03-29T08:44:16;10.20;99.90
5086;DHT22;4715;51.660;7.082;2024-03-29T08:46:38;10.30;99.90
5086;DHT22;4715;51.660;7.082;2024-03-29T08:49:01;10.40;99.90
5086;DHT22;4715;51.660;7.082;2024-03-29T08:51:25;10.50;99.90
5086;DHT22;4715;51.660;7.082;2024-03-29T08:53:46;10.60;99.90
5086;DHT22;4715;51.660;7.082;2024-03-29T08:56:08;10.60;99.90
5086;DHT22;4715;51.660;7.082;2024-03-29T08:58:30;10.80;99.90
5086;DHT22;4715;51.660;7.082;2024-03-29T09:00:53;10.80;99.90
5086;DHT22;4715;51.660;7.082;2024-03-29T09:03:18;10.80;99.90
5086;DHT22;4715;51.660;7.082;2024-03-29T09:05:41;10.80;99.90
5086;DHT22;4715;51.660;7.082;2024-03-29T09:08:06;10.80;99.90
5086;DHT22;4715;51.660;7.082;2024-03-29T09:10:28;10.90;99.90
5086;DHT22;4715;51.660;7.082;2024-03-29T09:12:50;10.80;99.90
5086;DHT22;4715;51.660;7.082;2024-03-29T09:15:15;10.80;99.90
5086;DHT22;4715;51.660;7.082;2024-03-29T09:17:37;10.80;99.90
5086;DHT22;4715;51.660;7.082;2024-03-29T09:20:00;10.70;99.90
5086;DHT22;4715;51.660;7.082;2024-03-29T09:22:23;10.70;99.90
5086;DHT22;4715;51.660;7.082;2024-03-29T09:24:45;10.60;99.90
5086;DHT22;4715;51.660;7.082;2024-03-29T09:27:07;10.60;99.90
5086;DHT22;4715;51.660;7.082;2024-03-29T09:29:30;10.50;99.90
5086;DHT22;4715;51.660;7.082;2024-03-29T09:31:51;10.50;99.90
5086;DHT22;4715;51.660;7.082;2024-03-29T09:34:13;10.40;99.90
5086;DHT22;4715;51.660;7.082;2024-03-29T09:36:35;10.30;99.90
5086;DHT22;4715;51.660;7.082;2024-03-29T09:39:01;10.30;99.90
5086;DHT22;4715;51.660;7.082;2024-03-29T09:41:26;10.20;99.90
5086;DHT22;4715;51.660;7.082;2024-03-29T09:43:52;10.20;99.90
5086;DHT22;4715;51.660;7.082;2024-03-29T09:46:16;10.20;99.90
5086;DHT22;4715;51.660;7.082;2024-03-29T09:48:39;10.10;99.90
5086;DHT22;4715;51.660;7.082;2024-03-29T09:51:04;10.20;99.90
5086;DHT22;4715;51.660;7.082;2024-03-29T09:53:26;10.20;99.90
5086;DHT22;4715;51.660;7.082;2024-03-29T09:55:55;10.20;99.90
5086;DHT22;4715;51.660;7.082;2024-03-29T09:58:18;10.30;99.90
5086;DHT22;4715;51.660;7.082;2024-03-29T10:00:40;10.30;99.90
5086;DHT22;4715;51.660;7.082;2024-03-29T10:03:05;10.40;99.90
5086;DHT22;4715;51.660;7.082;2024-03-29T10:05:28;10.50;99.90
5086;DHT22;4715;51.660;7.082;2024-03-29T10:07:54;10.90;99.90
5086;DHT22;4715;51.660;7.082;2024-03-29T10:10:17;10.80;99.90
5086;DHT22;4715;51.660;7.082;2024-03-29T10:12:41;10.80;99.90
5086;DHT22;4715;51.660;7.082;2024-03-29T10:15:04;10.80;99.90
5086;DHT22;4715;51.660;7.082;2024-03-29T10:17:30;10.80;99.90
5086;DHT22;4715;51.660;7.082;2024-03-29T10:19:52;10.80;99.90
5086;DHT22;4715;51.660;7.082;2024-03-29T10:22:14;10.90;99.90
5086;DHT22;4715;51.660;7.082;2024-03-29T10:24:37;10.90;99.90
5086;DHT22;4715;51.660;7.082;2024-03-29T10:26:59;10.90;99.90
5086;DHT22;4715;51.660;7.082;2024-03-29T10:29:29;11.00;99.90
5086;DHT22;4715;51.660;7.082;2024-03-29T10:31:51;11.10;99.90
5086;DHT22;4715;51.660;7.082;2024-03-29T10:34:14;11.20;99.90
5086;DHT22;4715;51.660;7.082;2024-03-29T10:36:36;11.30;99.90
5086;DHT22;4715;51.660;7.082;2024-03-29T10:39:00;11.40;99.90
5086;DHT22;4715;51.660;7.082;2024-03-29T10:41:23;11.40;99.90
5086;DHT22;4715;51.660;7.082;2024-03-29T10:43:45;11.50;99.90
5086;DHT22;4715;51.660;7.082;2024-03-29T10:46:10;11.50;99.90
5086;DHT22;4715;51.660;7.082;2024-03-29T10:48:33;11.60;99.90
5086;DHT22;4715;51.660;7.082;2024-03-29T10:50:58;11.70;99.90
5086;DHT22;4715;51.660;7.082;2024-03-29T10:53:21;11.80;99.90
5086;DHT22;4715;51.660;7.082;2024-03-29T10:55:46;11.90;99.90
5086;DHT22;4715;51.660;7.082;2024-03-29T10:58:10;12.00;99.90
5086;DHT22;4715;51.660;7.082;2024-03-29T11:00:38;12.00;99.90
5086;DHT22;4715;51.660;7.082;2024-03-29T11:03:12;12.10;99.90
5086;DHT22;4715;51.660;7.082;2024-03-29T11:05:38;12.20;99.90
5086;DHT22;4715;51.660;7.082;2024-03-29T11:08:05;12.20;99.90
5086;DHT22;4715;51.660;7.082;2024-03-29T11:10:30;12.20;99.90
5086;DHT22;4715;51.660;7.082;2024-03-29T11:13:01;12.20;99.90
5086;DHT22;4715;51.660;7.082;2024-03-29T11:15:29;12.30;99.90
5086;DHT22;4715;51.660;7.082;2024-03-29T11:17:53;12.40;99.90
5086;DHT22;4715;51.660;7.082;2024-03-29T11:20:17;12.40;99.90
5086;DHT22;4715;51.660;7.082;2024-03-29T11:22:44;12.50;99.90
5086;DHT22;4715;51.660;7.082;2024-03-29T11:25:07;12.60;99.90
5086;DHT22;4715;51.660;7.082;2024-03-29T11:27:42;12.70;99.90
5086;DHT22;4715;51.660;7.082;2024-03-29T11:30:05;12.80;99.90
5086;DHT22;4715;51.660;7.082;2024-03-29T11:32:37;12.80;99.90
5086;DHT22;4715;51.660;7.082;2024-03-29T11:34:59;12.80;99.90
5086;DHT22;4715;51.660;7.082;2024-03-29T11:37:29;12.80;99.90
5086;DHT22;4715;51.660;7.082;2024-03-29T11:39:54;12.80;99.90
5086;DHT22;4715;51.660;7.082;2024-03-29T11:42:17;12.80;99.90
5086;DHT22;4715;51.660;7.082;2024-03-29T11:44:39;12.80;99.90
5086;DHT22;4715;51.660;7.082;2024-03-29T11:47:06;12.90;99.90
5086;DHT22;4715;51.660;7.082;2024-03-29T11:49:31;12.90;99.90
5086;DHT22;4715;51.660;7.082;2024-03-29T11:52:02;12.90;99.90
5086;DHT22;4715;51.660;7.082;2024-03-29T11:54:26;13.00;99.90
5086;DHT22;4715;51.660;7.082;2024-03-29T11:56:50;13.00;99.90
5086;DHT22;4715;51.660;7.082;2024-03-29T11:59:13;13.00;99.90
5086;DHT22;4715;51.660;7.082;2024-03-29T12:01:36;13.10;99.90
5086;DHT22;4715;51.660;7.082;2024-03-29T12:04:00;13.20;99.90
5086;DHT22;4715;51.660;7.082;2024-03-29T12:06:21;13.30;99.90
5086;DHT22;4715;51.660;7.082;2024-03-29T12:08:46;13.40;99.90
5086;DHT22;4715;51.660;7.082;2024-03-29T12:11:10;13.40;99.90
5086;DHT22;4715;51.660;7.082;2024-03-29T12:13:32;13.50;99.90
5086;DHT22;4715;51.660;7.082;2024-03-29T12:15:54;13.50;99.90
5086;DHT22;4715;51.660;7.082;2024-03-29T12:18:16;13.50;99.90
5086;DHT22;4715;51.660;7.082;2024-03-29T12:20:38;13.60;99.90
5086;DHT22;4715;51.660;7.082;2024-03-29T12:23:01;13.60;99.90
5086;DHT22;4715;51.660;7.082;2024-03-29T12:25:23;13.60;99.90
5086;DHT22;4715;51.660;7.082;2024-03-29T12:27:49;13.60;99.90
5086;DHT22;4715;51.660;7.082;2024-03-29T12:30:12;13.60;99.90
5086;DHT22;4715;51.660;7.082;2024-03-29T12:32:35;13.60;99.90
5086;DHT22;4715;51.660;7.082;2024-03-29T12:35:09;13.70;99.90
5086;DHT22;4715;51.660;7.082;2024-03-29T12:37:31;13.70;99.90
5086;DHT22;4715;51.660;7.082;2024-03-29T12:39:53;13.70;99.90
5086;DHT22;4715;51.660;7.082;2024-03-29T12:42:16;13.80;99.90
5086;DHT22;4715;51.660;7.082;2024-03-29T12:44:40;13.80;99.90
5086;DHT22;4715;51.660;7.082;2024-03-29T12:47:02;13.90;99.90
5086;DHT22;4715;51.660;7.082;2024-03-29T12:49:25;13.90;99.90
5086;DHT22;4715;51.660;7.082;2024-03-29T12:51:47;14.00;99.90
5086;DHT22;4715;51.660;7.082;2024-03-29T12:54:09;14.00;99.90
5086;DHT22;4715;51.660;7.082;2024-03-29T12:56:31;14.10;99.90
5086;DHT22;4715;51.660;7.082;2024-03-29T12:58:53;14.10;99.90
5086;DHT22;4715;51.660;7.082;2024-03-29T13:01:16;14.20;99.90
5086;DHT22;4715;51.660;7.082;2024-03-29T13:03:38;14.40;99.90
5086;DHT22;4715;51.660;7.082;2024-03-29T13:06:01;14.50;99.90
5086;DHT22;4715;51.660;7.082;2024-03-29T13:08:23;14.60;99.90
5086;DHT22;4715;51.660;7.082;2024-03-29T13:10:45;14.70;99.90
5086;DHT22;4715;51.660;7.082;2024-03-29T13:13:08;14.80;99.90
5086;DHT22;4715;51.660;7.082;2024-03-29T13:15:33;15.00;99.90
5086;DHT22;4715;51.660;7.082;2024-03-29T13:17:56;15.10;99.90
5086;DHT22;4715;51.660;7.082;2024-03-29T13:20:19;15.10;99.90
5086;DHT22;4715;51.660;7.082;2024-03-29T13:22:47;15.20;99.90
5086;DHT22;4715;51.660;7.082;2024-03-29T13:25:10;15.30;99.90
5086;DHT22;4715;51.660;7.082;2024-03-29T13:27:31;15.40;99.90
5086;DHT22;4715;51.660;7.082;2024-03-29T13:29:53;15.50;99.90
5086;DHT22;4715;51.660;7.082;2024-03-29T13:32:14;15.60;99.90
5086;DHT22;4715;51.660;7.082;2024-03-29T13:34:38;15.70;99.90
5086;DHT22;4715;51.660;7.082;2024-03-29T13:37:00;15.80;99.90
5086;DHT22;4715;51.660;7.082;2024-03-29T13:39:25;15.80;99.90
5086;DHT22;4715;51.660;7.082;2024-03-29T13:41:46;15.80;99.90
5086;DHT22;4715;51.660;7.082;2024-03-29T13:44:08;15.80;99.90
5086;DHT22;4715;51.660;7.082;2024-03-29T13:46:31;15.70;99.90
5086;DHT22;4715;51.660;7.082;2024-03-29T13:48:53;15.60;99.90
5086;DHT22;4715;51.660;7.082;2024-03-29T13:51:18;15.50;99.90
5086;DHT22;4715;51.660;7.082;2024-03-29T13:53:41;15.50;99.90
5086;DHT22;4715;51.660;7.082;2024-03-29T13:56:04;15.50;99.90
5086;DHT22;4715;51.660;7.082;2024-03-29T13:58:29;15.50;99.90
5086;DHT22;4715;51.660;7.082;2024-03-29T14:00:54;15.50;99.90
5086;DHT22;4715;51.660;7.082;2024-03-29T14:03:20;15.40;99.90
5086;DHT22;4715;51.660;7.082;2024-03-29T14:05:42;15.40;99.90
5086;DHT22;4715;51.660;7.082;2024-03-29T14:08:07;15.70;99.90
5086;DHT22;4715;51.660;7.082;2024-03-29T14:10:29;16.20;99.90
5086;DHT22;4715;51.660;7.082;2024-03-29T14:12:56;16.50;99.90
5086;DHT22;4715;51.660;7.082;2024-03-29T14:15:20;16.60;99.90
5086;DHT22;4715;51.660;7.082;2024-03-29T14:17:42;16.40;99.90
5086;DHT22;4715;51.660;7.082;2024-03-29T14:20:04;16.10;99.90
5086;DHT22;4715;51.660;7.082;2024-03-29T14:22:27;15.90;99.90
5086;DHT22;4715;51.660;7.082;2024-03-29T14:24:53;15.80;99.90
5086;DHT22;4715;51.660;7.082;2024-03-29T14:27:16;15.60;99.90
5086;DHT22;4715;51.660;7.082;2024-03-29T14:29:38;15.50;99.90
5086;DHT22;4715;51.660;7.082;2024-03-29T14:32:01;15.40;99.90
5086;DHT22;4715;51.660;7.082;2024-03-29T14:34:23;15.40;99.90
5086;DHT22;4715;51.660;7.082;2024-03-29T14:36:45;15.40;99.90
5086;DHT22;4715;51.660;7.082;2024-03-29T14:39:09;15.50;99.90
5086;DHT22;4715;51.660;7.082;2024-03-29T14:41:35;15.50;99.90
5086;DHT22;4715;51.660;7.082;2024-03-29T14:44:00;15.50;99.90
5086;DHT22;4715;51.660;7.082;2024-03-29T14:46:22;15.60;99.90
5086;DHT22;4715;51.660;7.082;2024-03-29T14:48:44;15.60;99.90
5086;DHT22;4715;51.660;7.082;2024-03-29T14:51:07;15.70;99.90
5086;DHT22;4715;51.660;7.082;2024-03-29T14:53:32;15.80;99.90
5086;DHT22;4715;51.660;7.082;2024-03-29T14:55:55;15.90;99.90
5086;DHT22;4715;51.660;7.082;2024-03-29T14:58:18;16.10;99.90
5086;DHT22;4715;51.660;7.082;2024-03-29T15:00:40;16.20;99.90
5086;DHT22;4715;51.660;7.082;2024-03-29T15:03:04;16.30;99.90
5086;DHT22;4715;51.660;7.082;2024-03-29T15:05:26;16.30;99.90
5086;DHT22;4715;51.660;7.082;2024-03-29T15:07:48;16.40;99.90
5086;DHT22;4715;51.660;7.082;2024-03-29T15:10:10;16.50;99.90
5086;DHT22;4715;51.660;7.082;2024-03-29T15:12:32;16.50;99.90
5086;DHT22;4715;51.660;7.082;2024-03-29T15:14:55;16.40;99.90
5086;DHT22;4715;51.660;7.082;2024-03-29T15:17:19;16.40;99.90
5086;DHT22;4715;51.660;7.082;2024-03-29T15:19:45;16.20;99.90
5086;DHT22;4715;51.660;7.082;2024-03-29T15:22:11;16.10;99.90
5086;DHT22;4715;51.660;7.082;2024-03-29T15:24:33;16.00;99.90
5086;DHT22;4715;51.660;7.082;2024-03-29T15:26:55;15.90;99.90
5086;DHT22;4715;51.660;7.082;2024-03-29T15:29:19;15.80;99.90
5086;DHT22;4715;51.660;7.082;2024-03-29T15:31:42;15.80;99.90
5086;DHT22;4715;51.660;7.082;2024-03-29T15:34:04;15.70;99.90
5086;DHT22;4715;51.660;7.082;2024-03-29T15:36:26;15.70;99.90
5086;DHT22;4715;51.660;7.082;2024-03-29T15:38:49;15.70;99.90
5086;DHT22;4715;51.660;7.082;2024-03-29T15:41:11;15.60;99.90